Time;durP1;ratioP1;P1;durP2;ratioP2;P2;SDS_P1;SDS_P2;PMS_P1;PMS_P2;Temp;Humidity;BMP_temperature;BMP_pressure;BME280_temperature;BME280_humidity;BME280_pressure;Samples;Min_cycle;Max_cycle;Signal;HPM_P1;HPM_P2
2023/10/30 00:02:01;;;;;;;2.33;0.80;;;;;;;;;;5116056;28;20446;-60
2023/10/30 00:04:28;;;;;;;1.10;1.00;;;;;;;;;;5115952;28;20433;-60
2023/10/30 00:06:55;;;;;;;1.00;0.90;;;;;;;;;;5115814;28;20857;-60
2023/10/30 00:09:23;;;;;;;1.67;1.10;;;;;;;;;;5115673;28;20992;-60
2023/10/30 00:11:50;;;;;;;1.73;0.90;;;;;;;;;;5115504;28;20469;-60
2023/10/30 00:14:17;;;;;;;2.03;1.07;;;;;;;;;;5115777;28;20525;-60
2023/10/30 00:16:45;;;;;;;1.00;0.90;;;;;;;;;;5115692;28;20901;-60
2023/10/30 00:19:12;;;;;;;5.43;0.97;;;;;;;;;;5115845;28;20437;-60
2023/10/30 00:21:40;;;;;;;2.73;0.80;;;;;;;;;;5115476;28;20438;-60
2023/10/30 00:24:07;;;;;;;3.00;0.80;;;;;;;;;;5115425;28;20494;-60
2023/10/30 00:26:35;;;;;;;1.77;0.90;;;;;;;;;;5115644;28;20434;-60
2023/10/30 00:29:02;;;;;;;3.37;1.00;;;;;;;;;;5115497;28;20442;-60
2023/10/30 00:31:29;;;;;;;0.80;0.80;;;;;;;;;;5115319;28;20446;-60
2023/10/30 00:33:57;;;;;;;3.33;1.00;;;;;;;;;;5115319;28;20532;-60
2023/10/30 00:36:24;;;;;;;1.97;1.10;;;;;;;;;;5115275;28;20452;-60
2023/10/30 00:38:51;;;;;;;1.17;1.07;;;;;;;;;;5115334;28;20449;-60
2023/10/30 00:41:18;;;;;;;1.00;0.80;;;;;;;;;;5114680;28;20455;-60
2023/10/30 00:43:45;;;;;;;1.87;1.10;;;;;;;;;;5114917;28;20453;-60
2023/10/30 00:46:12;;;;;;;1.63;0.80;;;;;;;;;;5115173;28;20787;-60
2023/10/30 00:48:39;;;;;;;0.80;0.70;;;;;;;;;;5115244;28;20442;-60
2023/10/30 00:51:07;;;;;;;1.83;0.80;;;;;;;;;;5114827;28;20965;-60
2023/10/30 00:53:34;;;;;;;2.80;0.93;;;;;;;;;;5114987;28;20477;-60
2023/10/30 00:56:02;;;;;;;1.20;0.80;;;;;;;;;;5114927;28;20508;-60
2023/10/30 00:58:29;;;;;;;1.37;1.00;;;;;;;;;;5114933;28;20445;-60
2023/10/30 01:00:56;;;;;;;1.20;1.10;;;;;;;;;;5114794;28;20442;-60
2023/10/30 01:03:24;;;;;;;1.37;0.80;;;;;;;;;;5114735;28;20445;-60
2023/10/30 01:05:57;;;;;;;3.43;1.70;;;;;;;;;;5114517;28;20446;-60
2023/10/30 01:08:25;;;;;;;0.90;0.80;;;;;;;;;;5114807;28;20457;-60
2023/10/30 01:10:52;;;;;;;1.10;1.00;;;;;;;;;;5114670;28;20442;-60
2023/10/30 01:13:19;;;;;;;0.80;0.80;;;;;;;;;;5114485;28;20481;-60
2023/10/30 01:15:46;;;;;;;3.43;0.77;;;;;;;;;;5114504;28;20842;-60
2023/10/30 01:18:15;;;;;;;2.07;0.90;;;;;;;;;;5114375;28;20448;-60
2023/10/30 01:20:42;;;;;;;1.40;0.73;;;;;;;;;;5114526;28;20843;-60
2023/10/30 01:23:08;;;;;;;1.47;1.00;;;;;;;;;;5114468;28;20442;-60
2023/10/30 01:25:37;;;;;;;2.23;1.03;;;;;;;;;;5114321;28;20548;-60
2023/10/30 01:28:04;;;;;;;1.30;0.90;;;;;;;;;;5114307;28;20442;-60
2023/10/30 01:30:31;;;;;;;4.40;0.93;;;;;;;;;;5114145;28;20449;-60
2023/10/30 01:32:58;;;;;;;1.07;0.80;;;;;;;;;;5113900;28;20477;-60
2023/10/30 01:35:25;;;;;;;0.73;0.70;;;;;;;;;;5114282;28;20442;-60
2023/10/30 01:37:52;;;;;;;2.53;0.90;;;;;;;;;;5114322;28;20446;-60
2023/10/30 01:40:19;;;;;;;1.17;1.03;;;;;;;;;;5114399;28;20794;-60
2023/10/30 01:42:47;;;;;;;2.93;1.00;;;;;;;;;;5113962;28;20456;-60
2023/10/30 01:45:14;;;;;;;2.30;0.70;;;;;;;;;;5113912;28;20465;-61
2023/10/30 01:47:41;;;;;;;0.87;0.70;;;;;;;;;;5113895;28;20532;-60
2023/10/30 01:50:10;;;;;;;6.10;1.20;;;;;;;;;;5114015;28;20532;-60
2023/10/30 01:52:37;;;;;;;2.87;0.80;;;;;;;;;;5113173;28;20479;-60
2023/10/30 01:55:04;;;;;;;1.97;0.90;;;;;;;;;;5114215;28;20537;-60
2023/10/30 01:57:33;;;;;;;1.90;0.80;;;;;;;;;;5113758;28;20441;-60
2023/10/30 02:00:02;;;;;;;1.53;1.20;;;;;;;;;;5113785;28;20448;-60
2023/10/30 02:02:30;;;;;;;1.70;0.80;;;;;;;;;;5113825;28;20445;-60
2023/10/30 02:04:57;;;;;;;0.90;0.80;;;;;;;;;;5113744;28;20449;-60
2023/10/30 02:07:24;;;;;;;2.63;1.10;;;;;;;;;;5113707;28;20445;-60
2023/10/30 02:09:52;;;;;;;1.40;0.90;;;;;;;;;;5113632;28;20448;-60
2023/10/30 02:12:18;;;;;;;1.53;1.07;;;;;;;;;;5113400;28;21002;-60
2023/10/30 02:14:45;;;;;;;1.40;1.20;;;;;;;;;;5113445;28;20532;-60
2023/10/30 02:17:14;;;;;;;1.00;0.80;;;;;;;;;;5113689;28;20528;-60
2023/10/30 02:19:41;;;;;;;0.83;0.70;;;;;;;;;;5113620;28;20536;-60
2023/10/30 02:22:08;;;;;;;2.10;0.70;;;;;;;;;;5113411;28;20479;-60
2023/10/30 02:24:35;;;;;;;1.47;0.80;;;;;;;;;;5113464;28;20524;-60
2023/10/30 02:27:03;;;;;;;2.70;0.70;;;;;;;;;;5113349;28;20866;-60
2023/10/30 02:29:30;;;;;;;3.13;0.97;;;;;;;;;;5113587;28;20533;-60
2023/10/30 02:31:57;;;;;;;1.20;0.80;;;;;;;;;;5113480;28;20444;-60
2023/10/30 02:34:24;;;;;;;1.50;0.90;;;;;;;;;;5113320;28;20840;-60
2023/10/30 02:36:52;;;;;;;1.33;0.80;;;;;;;;;;5113794;28;20957;-60
2023/10/30 02:39:19;;;;;;;1.23;0.80;;;;;;;;;;5113353;28;20465;-60
2023/10/30 02:41:46;;;;;;;2.33;0.70;;;;;;;;;;5113340;28;20509;-61
2023/10/30 02:44:15;;;;;;;1.37;0.80;;;;;;;;;;5113267;28;20826;-60
2023/10/30 02:46:41;;;;;;;1.40;1.30;;;;;;;;;;5113301;28;20525;-60
2023/10/30 02:49:09;;;;;;;0.70;0.70;;;;;;;;;;5113345;28;20437;-60
2023/10/30 02:51:36;;;;;;;1.83;0.70;;;;;;;;;;5113327;28;20452;-60
2023/10/30 02:54:03;;;;;;;1.33;0.80;;;;;;;;;;5113101;28;20569;-60
2023/10/30 02:56:30;;;;;;;2.57;1.00;;;;;;;;;;5113147;28;20553;-60
2023/10/30 02:58:57;;;;;;;3.03;1.00;;;;;;;;;;5113238;28;20473;-60
2023/10/30 03:01:26;;;;;;;1.27;0.70;;;;;;;;;;5113214;28;20483;-60
2023/10/30 03:03:53;;;;;;;2.50;0.77;;;;;;;;;;5114799;28;20438;-60
2023/10/30 03:06:20;;;;;;;1.30;0.70;;;;;;;;;;5117034;28;20449;-60
2023/10/30 03:08:47;;;;;;;2.80;1.17;;;;;;;;;;5116863;28;21007;-60
2023/10/30 03:11:14;;;;;;;2.20;1.00;;;;;;;;;;5117053;28;20974;-60
2023/10/30 03:13:41;;;;;;;1.37;0.80;;;;;;;;;;5116863;28;20499;-60
2023/10/30 03:16:08;;;;;;;2.13;0.80;;;;;;;;;;5117039;28;21011;-60
2023/10/30 03:18:36;;;;;;;1.63;0.80;;;;;;;;;;5116815;28;20473;-60
2023/10/30 03:21:04;;;;;;;1.53;1.10;;;;;;;;;;5116691;28;20447;-60
2023/10/30 03:23:31;;;;;;;2.07;0.90;;;;;;;;;;5116606;27;20464;-60
2023/10/30 03:25:59;;;;;;;1.73;0.90;;;;;;;;;;5116765;28;20441;-60
2023/10/30 03:28:26;;;;;;;0.83;0.70;;;;;;;;;;5116711;28;20445;-60
2023/10/30 03:30:53;;;;;;;1.97;0.87;;;;;;;;;;5116941;28;20445;-60
2023/10/30 03:33:20;;;;;;;3.07;0.90;;;;;;;;;;5116458;28;20480;-60
2023/10/30 03:35:48;;;;;;;2.77;0.93;;;;;;;;;;5116658;28;20810;-60
2023/10/30 03:38:16;;;;;;;3.90;1.03;;;;;;;;;;5116567;28;20528;-60
2023/10/30 03:40:43;;;;;;;1.50;0.77;;;;;;;;;;5116453;28;20464;-61
2023/10/30 03:43:12;;;;;;;3.67;0.80;;;;;;;;;;5116450;28;20488;-61
2023/10/30 03:45:39;;;;;;;1.40;0.80;;;;;;;;;;5115945;28;20988;-61
2023/10/30 03:48:06;;;;;;;0.80;0.80;;;;;;;;;;5116334;28;20445;-60
2023/10/30 03:50:33;;;;;;;3.17;1.10;;;;;;;;;;5115984;28;20988;-60
2023/10/30 03:53:01;;;;;;;1.37;0.80;;;;;;;;;;5116039;28;20483;-60
2023/10/30 03:55:28;;;;;;;1.00;0.80;;;;;;;;;;5116210;28;20540;-60
2023/10/30 03:57:55;;;;;;;1.63;0.70;;;;;;;;;;5116118;28;20445;-60
2023/10/30 04:00:22;;;;;;;1.83;0.80;;;;;;;;;;5115964;28;20533;-60
2023/10/30 04:02:49;;;;;;;2.67;0.80;;;;;;;;;;5115791;28;20468;-61
2023/10/30 04:05:16;;;;;;;2.33;0.80;;;;;;;;;;5116328;28;20452;-60
2023/10/30 04:07:43;;;;;;;1.40;0.70;;;;;;;;;;5115977;28;20536;-60
2023/10/30 04:10:11;;;;;;;1.83;0.70;;;;;;;;;;5116073;28;20435;-60
2023/10/30 04:12:39;;;;;;;1.00;0.70;;;;;;;;;;5115967;28;20470;-60
2023/10/30 04:15:06;;;;;;;2.73;0.70;;;;;;;;;;5114556;28;20479;-60
2023/10/30 04:17:33;;;;;;;1.20;0.73;;;;;;;;;;5115553;28;20479;-60
2023/10/30 04:20:00;;;;;;;2.53;0.90;;;;;;;;;;5115772;28;20470;-60
2023/10/30 04:22:27;;;;;;;2.07;1.10;;;;;;;;;;5115659;28;20849;-60
2023/10/30 04:24:54;;;;;;;0.70;0.60;;;;;;;;;;5115578;28;20996;-60
2023/10/30 04:27:22;;;;;;;2.73;0.90;;;;;;;;;;5115419;28;20532;-61
2023/10/30 04:29:49;;;;;;;1.40;0.80;;;;;;;;;;5115387;28;20449;-61
2023/10/30 04:32:16;;;;;;;0.80;0.67;;;;;;;;;;5115282;28;20456;-61
2023/10/30 04:34:43;;;;;;;1.20;1.10;;;;;;;;;;5115351;28;20487;-60
2023/10/30 04:37:10;;;;;;;2.27;0.90;;;;;;;;;;5115373;28;20445;-60
2023/10/30 04:39:37;;;;;;;4.00;2.00;;;;;;;;;;5115530;28;20521;-60
2023/10/30 04:42:04;;;;;;;1.50;0.80;;;;;;;;;;5115465;28;20441;-60
2023/10/30 04:44:31;;;;;;;1.10;0.87;;;;;;;;;;5114968;28;20560;-60
2023/10/30 04:46:58;;;;;;;2.60;0.90;;;;;;;;;;5115034;28;20446;-60
2023/10/30 04:49:25;;;;;;;1.50;1.37;;;;;;;;;;5115099;28;20490;-60
2023/10/30 04:51:52;;;;;;;1.80;1.37;;;;;;;;;;5115120;28;20480;-60
2023/10/30 04:54:19;;;;;;;2.27;0.90;;;;;;;;;;5114873;28;20564;-60
2023/10/30 04:56:46;;;;;;;1.60;0.90;;;;;;;;;;5115120;28;20449;-60
2023/10/30 04:59:13;;;;;;;1.00;0.60;;;;;;;;;;5114807;28;20442;-60
2023/10/30 05:01:41;;;;;;;1.23;1.07;;;;;;;;;;5115267;28;20572;-60
2023/10/30 05:04:08;;;;;;;4.10;2.00;;;;;;;;;;5114703;28;20442;-60
2023/10/30 05:06:35;;;;;;;1.37;0.87;;;;;;;;;;5114826;28;20437;-59
2023/10/30 05:09:03;;;;;;;2.03;1.00;;;;;;;;;;5114818;28;20498;-59
2023/10/30 05:11:30;;;;;;;1.50;1.10;;;;;;;;;;5114454;28;20453;-59
2023/10/30 05:13:57;;;;;;;1.73;1.00;;;;;;;;;;5114286;28;20465;-59
2023/10/30 05:16:24;;;;;;;2.20;0.70;;;;;;;;;;5114636;28;20532;-60
2023/10/30 05:18:52;;;;;;;2.80;0.70;;;;;;;;;;5114516;28;20770;-59
2023/10/30 05:21:19;;;;;;;1.67;0.80;;;;;;;;;;5114463;28;20473;-59
2023/10/30 05:23:46;;;;;;;2.37;1.00;;;;;;;;;;5114336;28;20452;-59
2023/10/30 05:26:13;;;;;;;4.10;0.90;;;;;;;;;;5113970;28;20863;-60
2023/10/30 05:28:40;;;;;;;4.40;1.10;;;;;;;;;;5114447;28;20442;-59
2023/10/30 05:31:07;;;;;;;2.00;0.83;;;;;;;;;;5114246;28;20542;-59
2023/10/30 05:33:34;;;;;;;0.93;0.70;;;;;;;;;;5114095;28;20484;-60
2023/10/30 05:36:03;;;;;;;2.00;0.90;;;;;;;;;;5114141;28;20547;-59
2023/10/30 05:38:30;;;;;;;2.13;0.90;;;;;;;;;;5114057;28;20437;-60
2023/10/30 05:40:57;;;;;;;4.20;0.90;;;;;;;;;;5113886;28;20797;-60
2023/10/30 05:43:24;;;;;;;3.33;0.60;;;;;;;;;;5114044;28;20445;-60
2023/10/30 05:45:51;;;;;;;1.00;0.77;;;;;;;;;;5113659;28;20544;-60
2023/10/30 05:48:19;;;;;;;2.83;1.03;;;;;;;;;;5113898;28;20437;-60
2023/10/30 05:50:46;;;;;;;1.90;1.00;;;;;;;;;;5113887;28;20959;-60
2023/10/30 05:53:14;;;;;;;0.80;0.73;;;;;;;;;;5113648;28;20955;-60
2023/10/30 05:55:41;;;;;;;1.63;0.90;;;;;;;;;;5113905;28;20532;-60
2023/10/30 05:58:08;;;;;;;0.80;0.73;;;;;;;;;;5113703;28;20874;-60
2023/10/30 06:00:35;;;;;;;2.30;1.00;;;;;;;;;;5113673;28;20449;-60
2023/10/30 06:03:02;;;;;;;2.90;0.70;;;;;;;;;;5113656;28;20529;-60
2023/10/30 06:05:29;;;;;;;1.90;1.70;;;;;;;;;;5113572;28;20880;-60
2023/10/30 06:07:56;;;;;;;0.80;0.80;;;;;;;;;;5113646;28;20536;-60
2023/10/30 06:10:24;;;;;;;0.80;0.80;;;;;;;;;;5113739;28;20980;-60
2023/10/30 06:12:51;;;;;;;2.00;1.07;;;;;;;;;;5113623;28;20446;-59
2023/10/30 06:15:18;;;;;;;2.60;1.07;;;;;;;;;;5113392;28;20487;-58
2023/10/30 06:17:45;;;;;;;3.23;1.00;;;;;;;;;;5113429;28;20445;-59
2023/10/30 06:20:12;;;;;;;1.70;0.90;;;;;;;;;;5113393;28;20456;-59
2023/10/30 06:22:39;;;;;;;2.37;0.93;;;;;;;;;;5113631;28;20536;-59
2023/10/30 06:25:06;;;;;;;1.53;0.70;;;;;;;;;;5113489;28;20446;-59
2023/10/30 06:27:35;;;;;;;2.57;0.87;;;;;;;;;;5113464;28;20492;-59
2023/10/30 06:30:02;;;;;;;1.33;0.70;;;;;;;;;;5113538;28;20936;-60
2023/10/30 06:32:30;;;;;;;2.40;0.80;;;;;;;;;;5113608;28;20442;-60
2023/10/30 06:34:57;;;;;;;1.10;0.60;;;;;;;;;;5113147;28;20482;-59
2023/10/30 06:37:24;;;;;;;0.80;0.60;;;;;;;;;;5113505;28;20494;-59
2023/10/30 06:39:51;;;;;;;1.43;0.70;;;;;;;;;;5116511;28;20536;-60
2023/10/30 06:42:18;;;;;;;1.50;0.80;;;;;;;;;;5117489;28;20452;-59
2023/10/30 06:44:46;;;;;;;1.43;1.00;;;;;;;;;;5117357;28;20579;-59
2023/10/30 06:47:13;;;;;;;2.23;0.90;;;;;;;;;;5117282;28;20537;-59
2023/10/30 06:49:40;;;;;;;2.03;0.90;;;;;;;;;;5117202;28;20528;-60
2023/10/30 06:52:07;;;;;;;1.90;0.97;;;;;;;;;;5117249;28;20445;-59
2023/10/30 06:54:34;;;;;;;1.93;1.07;;;;;;;;;;5117115;28;20480;-59
2023/10/30 06:57:01;;;;;;;2.80;1.87;;;;;;;;;;5117154;28;20441;-59
2023/10/30 06:59:28;;;;;;;2.30;1.10;;;;;;;;;;5116865;28;20457;-60
2023/10/30 07:01:56;;;;;;;1.90;1.00;;;;;;;;;;5116801;28;20453;-59
2023/10/30 07:04:24;;;;;;;1.47;0.80;;;;;;;;;;5116768;28;20480;-60
2023/10/30 07:06:51;;;;;;;1.47;0.90;;;;;;;;;;5117217;28;20532;-60
2023/10/30 07:09:19;;;;;;;1.40;1.10;;;;;;;;;;5117204;28;20496;-59
2023/10/30 07:11:46;;;;;;;1.80;1.03;;;;;;;;;;5116723;28;20536;-59
2023/10/30 07:14:13;;;;;;;3.77;0.83;;;;;;;;;;5116537;28;20472;-59
2023/10/30 07:16:41;;;;;;;2.97;0.90;;;;;;;;;;5116457;28;20841;-59
2023/10/30 07:19:09;;;;;;;1.87;1.27;;;;;;;;;;5116818;28;20774;-59
2023/10/30 07:21:36;;;;;;;6.97;1.20;;;;;;;;;;5116752;28;20442;-59
2023/10/30 07:24:03;;;;;;;4.10;1.43;;;;;;;;;;5116559;28;20477;-59
2023/10/30 07:26:30;;;;;;;2.20;0.97;;;;;;;;;;5116486;28;20477;-59
2023/10/30 07:28:57;;;;;;;1.67;1.10;;;;;;;;;;5116471;28;20477;-59
2023/10/30 07:31:24;;;;;;;3.70;1.07;;;;;;;;;;5116309;28;20508;-59
2023/10/30 07:33:51;;;;;;;1.83;0.97;;;;;;;;;;5116392;28;20452;-59
2023/10/30 07:36:19;;;;;;;2.30;0.90;;;;;;;;;;5116405;28;20441;-59
2023/10/30 07:38:46;;;;;;;6.50;1.10;;;;;;;;;;5116303;28;20533;-59
2023/10/30 07:41:13;;;;;;;2.73;1.40;;;;;;;;;;5116292;28;20445;-59
2023/10/30 07:43:40;;;;;;;2.37;1.10;;;;;;;;;;5115914;28;20460;-59
2023/10/30 07:46:07;;;;;;;2.60;1.20;;;;;;;;;;5116302;28;20434;-59
2023/10/30 07:48:34;;;;;;;1.67;1.20;;;;;;;;;;5116096;28;20528;-59
2023/10/30 07:51:02;;;;;;;3.47;0.90;;;;;;;;;;5115916;28;20442;-59
2023/10/30 07:53:31;;;;;;;6.33;1.00;;;;;;;;;;5115675;27;20438;-61
2023/10/30 07:55:58;;;;;;;2.10;0.90;;;;;;;;;;5115744;28;20492;-60
2023/10/30 07:58:26;;;;;;;2.00;1.00;;;;;;;;;;5132307;27;20889;-60
2023/10/30 08:00:53;;;;;;;4.93;0.93;;;;;;;;;;5136467;27;20785;-60
2023/10/30 08:03:20;;;;;;;2.20;1.10;;;;;;;;;;5136397;27;20532;-61
2023/10/30 08:05:47;;;;;;;1.00;0.90;;;;;;;;;;5136028;27;20466;-60
2023/10/30 08:08:17;;;;;;;2.40;0.80;;;;;;;;;;5136227;27;20875;-61
2023/10/30 08:10:45;;;;;;;1.63;1.00;;;;;;;;;;5136138;27;20433;-61
2023/10/30 08:13:12;;;;;;;2.63;1.43;;;;;;;;;;5136223;27;20899;-61
2023/10/30 08:15:39;;;;;;;3.37;1.13;;;;;;;;;;5135951;27;21025;-60
2023/10/30 08:18:06;;;;;;;2.00;1.30;;;;;;;;;;5136110;27;20540;-62
2023/10/30 08:20:33;;;;;;;5.20;2.40;;;;;;;;;;5136020;27;20563;-63
2023/10/30 08:23:00;;;;;;;2.77;0.97;;;;;;;;;;5135869;27;20445;-60
2023/10/30 08:25:27;;;;;;;4.23;1.77;;;;;;;;;;5135645;27;20582;-62
2023/10/30 08:27:57;;;;;;;3.57;1.40;;;;;;;;;;5135911;27;20531;-60
2023/10/30 08:30:25;;;;;;;1.17;0.93;;;;;;;;;;5116074;27;20453;-60
2023/10/30 08:32:52;;;;;;;2.20;1.10;;;;;;;;;;5115156;28;20453;-61
2023/10/30 08:35:19;;;;;;;7.10;1.40;;;;;;;;;;5115051;28;20480;-60
2023/10/30 08:37:46;;;;;;;3.80;1.10;;;;;;;;;;5115127;28;21008;-61
2023/10/30 08:40:13;;;;;;;6.33;1.00;;;;;;;;;;5114838;28;20532;-61
2023/10/30 08:42:40;;;;;;;1.77;1.20;;;;;;;;;;5115149;28;20533;-65
2023/10/30 08:45:09;;;;;;;4.43;1.30;;;;;;;;;;5114758;28;20805;-62
2023/10/30 08:47:36;;;;;;;3.20;1.00;;;;;;;;;;5114848;28;20473;-60
2023/10/30 08:50:03;;;;;;;1.93;1.00;;;;;;;;;;5114785;28;20442;-61
2023/10/30 08:52:30;;;;;;;1.10;1.00;;;;;;;;;;5114519;28;20839;-60
2023/10/30 08:54:57;;;;;;;2.30;1.27;;;;;;;;;;5114746;28;20852;-61
2023/10/30 08:57:24;;;;;;;4.10;1.10;;;;;;;;;;5114731;28;20544;-62
2023/10/30 08:59:51;;;;;;;1.80;1.23;;;;;;;;;;5114690;28;20835;-60
2023/10/30 09:02:19;;;;;;;2.90;1.57;;;;;;;;;;5114225;28;20441;-60
2023/10/30 09:04:46;;;;;;;1.67;0.80;;;;;;;;;;5114449;28;20901;-61
2023/10/30 09:07:13;;;;;;;1.17;0.80;;;;;;;;;;5114638;28;20452;-62
2023/10/30 09:09:40;;;;;;;4.53;1.30;;;;;;;;;;5114544;28;20465;-64
2023/10/30 09:12:08;;;;;;;1.80;1.07;;;;;;;;;;5114414;28;20529;-64
2023/10/30 09:14:34;;;;;;;1.97;1.00;;;;;;;;;;5114347;28;20469;-61
2023/10/30 09:17:02;;;;;;;3.83;1.53;;;;;;;;;;5114367;28;20873;-61
2023/10/30 09:19:30;;;;;;;4.93;1.00;;;;;;;;;;5113927;28;20438;-60
2023/10/30 09:21:57;;;;;;;3.77;1.00;;;;;;;;;;5114233;28;20962;-61
2023/10/30 09:24:24;;;;;;;3.10;1.00;;;;;;;;;;5114425;28;20445;-63
2023/10/30 09:26:51;;;;;;;2.00;0.70;;;;;;;;;;5114239;28;20533;-64
2023/10/30 09:29:18;;;;;;;3.13;1.33;;;;;;;;;;5114138;28;20494;-59
2023/10/30 09:31:49;;;;;;;4.53;1.17;;;;;;;;;;5113969;28;20438;-60
2023/10/30 09:34:15;;;;;;;1.80;1.20;;;;;;;;;;5113836;28;20481;-60
2023/10/30 09:36:44;;;;;;;4.60;1.30;;;;;;;;;;5114162;28;20805;-59
2023/10/30 09:39:12;;;;;;;2.50;1.10;;;;;;;;;;5113871;28;20446;-59
2023/10/30 09:41:40;;;;;;;1.60;0.90;;;;;;;;;;5114066;28;20856;-63
2023/10/30 09:44:10;;;;;;;3.77;1.00;;;;;;;;;;5113692;28;20473;-63
2023/10/30 09:46:38;;;;;;;4.00;1.03;;;;;;;;;;5113213;28;20442;-65
2023/10/30 09:49:06;;;;;;;1.60;1.40;;;;;;;;;;5114021;28;20797;-65
2023/10/30 09:51:33;;;;;;;2.80;1.20;;;;;;;;;;5113828;28;20467;-60
2023/10/30 09:54:02;;;;;;;2.40;1.00;;;;;;;;;;5113743;28;20452;-61
2023/10/30 09:56:31;;;;;;;2.90;1.23;;;;;;;;;;5113782;28;20507;-61
2023/10/30 09:58:59;;;;;;;2.60;1.27;;;;;;;;;;5113409;28;20801;-65
2023/10/30 10:01:26;;;;;;;2.00;1.00;;;;;;;;;;5113625;28;20452;-61
2023/10/30 10:03:53;;;;;;;3.17;1.10;;;;;;;;;;5113550;28;20464;-65
2023/10/30 10:06:20;;;;;;;3.60;1.43;;;;;;;;;;5113486;28;20446;-63
2023/10/30 10:08:48;;;;;;;2.00;1.33;;;;;;;;;;5113245;28;20945;-58
2023/10/30 10:11:16;;;;;;;2.10;1.00;;;;;;;;;;5113394;28;20441;-59
2023/10/30 10:13:48;;;;;;;2.83;1.33;;;;;;;;;;5112152;28;20529;-64
2023/10/30 10:16:15;;;;;;;3.07;1.20;;;;;;;;;;5113239;28;20500;-65
2023/10/30 10:18:42;;;;;;;3.13;1.37;;;;;;;;;;5113283;28;20885;-64
2023/10/30 10:21:11;;;;;;;4.87;1.33;;;;;;;;;;5113280;28;20503;-67
2023/10/30 10:23:39;;;;;;;3.23;1.00;;;;;;;;;;5113480;28;20920;-62
2023/10/30 10:26:06;;;;;;;1.93;1.07;;;;;;;;;;5113243;28;20452;-63
2023/10/30 10:28:35;;;;;;;4.07;1.43;;;;;;;;;;5113353;28;20466;-65
2023/10/30 10:31:04;;;;;;;3.03;2.07;;;;;;;;;;5113614;28;20441;-64
2023/10/30 10:33:31;;;;;;;3.90;1.40;;;;;;;;;;5113015;28;20528;-63
2023/10/30 10:36:00;;;;;;;5.13;1.97;;;;;;;;;;5112982;28;20997;-61
2023/10/30 10:38:28;;;;;;;3.77;1.30;;;;;;;;;;5113119;28;20449;-66
2023/10/30 10:40:55;;;;;;;1.43;0.90;;;;;;;;;;5112870;28;20796;-61
2023/10/30 10:43:23;;;;;;;2.70;1.03;;;;;;;;;;5113080;28;20488;-65
2023/10/30 10:45:51;;;;;;;3.80;1.10;;;;;;;;;;5112666;28;20476;-65
2023/10/30 10:48:19;;;;;;;1.80;1.00;;;;;;;;;;5113121;28;20442;-60
2023/10/30 10:50:46;;;;;;;3.03;1.10;;;;;;;;;;5112916;28;20657;-64
2023/10/30 10:53:14;;;;;;;2.23;1.00;;;;;;;;;;5113464;28;20442;-61
2023/10/30 10:55:43;;;;;;;2.63;0.97;;;;;;;;;;5113016;28;20473;-63
2023/10/30 10:58:12;;;;;;;5.30;1.00;;;;;;;;;;5112935;28;20449;-61
2023/10/30 11:00:42;;;;;;;2.30;0.93;;;;;;;;;;5112821;28;20438;-62
2023/10/30 11:03:10;;;;;;;1.87;1.10;;;;;;;;;;5112823;28;20528;-65
2023/10/30 11:05:38;;;;;;;1.70;1.30;;;;;;;;;;5112885;28;20445;-64
2023/10/30 11:08:11;;;;;;;2.23;1.10;;;;;;;;;;5112843;28;20494;-59
2023/10/30 11:10:41;;;;;;;2.53;1.10;;;;;;;;;;5112924;28;20438;-65
2023/10/30 11:13:13;;;;;;;3.60;1.53;;;;;;;;;;5112905;28;20441;-61
2023/10/30 11:15:45;;;;;;;3.20;1.10;;;;;;;;;;5112782;28;20481;-61
2023/10/30 11:18:21;;;;;;;1.60;0.93;;;;;;;;;;5112784;28;20502;-59
2023/10/30 11:20:49;;;;;;;2.87;1.10;;;;;;;;;;5113241;28;20441;-60
2023/10/30 11:23:36;;;;;;;2.90;1.00;;;;;;;;;;5112827;28;20444;-60
2023/10/30 11:26:03;;;;;;;5.07;1.33;;;;;;;;;;5115614;28;20933;-59
2023/10/30 11:28:33;;;;;;;4.57;1.10;;;;;;;;;;5116444;28;20980;-59
2023/10/30 11:31:03;;;;;;;5.43;1.20;;;;;;;;;;5116285;28;20452;-60
2023/10/30 11:33:31;;;;;;;2.30;1.17;;;;;;;;;;5116332;28;20445;-59
2023/10/30 11:36:13;;;;;;;1.20;0.83;;;;;;;;;;5116340;28;20509;-65
2023/10/30 11:38:49;;;;;;;2.23;1.00;;;;;;;;;;5116030;28;21004;-63
2023/10/30 11:41:16;;;;;;;2.40;1.03;;;;;;;;;;5115991;28;20616;-65
2023/10/30 11:43:43;;;;;;;3.83;1.47;;;;;;;;;;5116046;28;20492;-66
2023/10/30 11:46:14;;;;;;;1.80;1.10;;;;;;;;;;5116408;28;20532;-64
2023/10/30 11:48:44;;;;;;;6.97;1.27;;;;;;;;;;5115937;28;20446;-60
2023/10/30 11:51:10;;;;;;;2.20;1.17;;;;;;;;;;5115374;28;20469;-58
2023/10/30 11:53:37;;;;;;;3.40;1.03;;;;;;;;;;5115835;28;20526;-61
2023/10/30 11:56:05;;;;;;;4.13;1.40;;;;;;;;;;5115141;28;20556;-60
2023/10/30 11:58:33;;;;;;;7.30;1.33;;;;;;;;;;5115715;28;20453;-59
2023/10/30 12:01:05;;;;;;;2.50;1.20;;;;;;;;;;5116098;28;20442;-64
2023/10/30 12:03:33;;;;;;;1.53;0.87;;;;;;;;;;5115576;28;20445;-61
2023/10/30 12:06:02;;;;;;;1.87;1.00;;;;;;;;;;5115603;28;20604;-63
2023/10/30 12:08:29;;;;;;;3.23;1.03;;;;;;;;;;5115423;28;20588;-62
2023/10/30 12:10:56;;;;;;;3.43;1.00;;;;;;;;;;5115976;28;20541;-62
2023/10/30 12:13:23;;;;;;;1.87;0.93;;;;;;;;;;5115778;28;20441;-63
2023/10/30 12:15:52;;;;;;;2.80;0.77;;;;;;;;;;5115519;28;20522;-62
2023/10/30 12:18:19;;;;;;;2.50;0.97;;;;;;;;;;5115378;28;20450;-61
2023/10/30 12:20:47;;;;;;;1.43;0.80;;;;;;;;;;5115376;28;20445;-60
2023/10/30 12:23:15;;;;;;;3.53;1.10;;;;;;;;;;5115614;28;20827;-61
2023/10/30 12:25:43;;;;;;;2.20;1.00;;;;;;;;;;5115389;28;20538;-64
2023/10/30 12:28:10;;;;;;;2.30;1.07;;;;;;;;;;5115358;28;20801;-60
2023/10/30 12:30:38;;;;;;;2.53;0.90;;;;;;;;;;5115508;28;20847;-60
2023/10/30 12:33:05;;;;;;;1.70;1.30;;;;;;;;;;5115218;28;20474;-60
2023/10/30 12:35:33;;;;;;;2.33;0.93;;;;;;;;;;5114921;28;20508;-61
2023/10/30 12:38:00;;;;;;;1.87;1.23;;;;;;;;;;5114571;28;20445;-61
2023/10/30 12:40:29;;;;;;;2.00;1.00;;;;;;;;;;5115113;28;20959;-60
2023/10/30 12:42:57;;;;;;;1.80;1.10;;;;;;;;;;5115068;28;20820;-60
2023/10/30 12:45:24;;;;;;;3.20;1.40;;;;;;;;;;5114980;28;20470;-60
2023/10/30 12:47:51;;;;;;;5.30;0.90;;;;;;;;;;5114727;28;20438;-60
2023/10/30 12:50:18;;;;;;;1.13;0.63;;;;;;;;;;5114884;28;20498;-62
2023/10/30 12:52:45;;;;;;;2.90;1.10;;;;;;;;;;5114984;28;20532;-60
2023/10/30 12:55:13;;;;;;;1.10;0.70;;;;;;;;;;5114529;28;20951;-60
2023/10/30 12:57:41;;;;;;;1.20;0.90;;;;;;;;;;5114575;28;20478;-61
2023/10/30 13:00:09;;;;;;;2.37;0.80;;;;;;;;;;5114633;28;20515;-62
2023/10/30 13:02:36;;;;;;;2.47;1.00;;;;;;;;;;5114560;28;20532;-62
2023/10/30 13:05:03;;;;;;;1.47;1.00;;;;;;;;;;5114616;28;20484;-61
2023/10/30 13:07:30;;;;;;;1.47;0.87;;;;;;;;;;5114663;28;20541;-60
2023/10/30 13:09:57;;;;;;;1.40;1.10;;;;;;;;;;5114348;28;20502;-61
2023/10/30 13:12:24;;;;;;;1.77;0.90;;;;;;;;;;5114357;28;20498;-61
2023/10/30 13:14:52;;;;;;;1.23;0.80;;;;;;;;;;5114206;28;20484;-60
2023/10/30 13:17:19;;;;;;;6.07;1.00;;;;;;;;;;5114081;28;20508;-60
2023/10/30 13:19:46;;;;;;;3.63;1.63;;;;;;;;;;5114389;28;20883;-62
2023/10/30 13:22:13;;;;;;;1.43;1.30;;;;;;;;;;5114254;28;20442;-61
2023/10/30 13:24:41;;;;;;;2.03;1.00;;;;;;;;;;5114328;28;20467;-59
2023/10/30 13:27:08;;;;;;;2.30;0.93;;;;;;;;;;5114196;28;20495;-61
2023/10/30 13:29:35;;;;;;;2.03;0.73;;;;;;;;;;5114017;28;20851;-60
2023/10/30 13:32:04;;;;;;;3.40;0.87;;;;;;;;;;5114176;28;20460;-60
2023/10/30 13:34:31;;;;;;;2.30;0.90;;;;;;;;;;5114112;28;20483;-60
2023/10/30 13:36:58;;;;;;;2.50;1.00;;;;;;;;;;5113969;28;20473;-60
2023/10/30 13:39:25;;;;;;;2.43;1.37;;;;;;;;;;5114053;28;20448;-60
2023/10/30 13:41:52;;;;;;;5.90;0.73;;;;;;;;;;5113889;28;20878;-60
2023/10/30 13:44:19;;;;;;;3.67;0.77;;;;;;;;;;5113422;28;20872;-60
2023/10/30 13:46:46;;;;;;;1.63;1.13;;;;;;;;;;5113634;28;20987;-59
2023/10/30 13:49:14;;;;;;;4.50;1.00;;;;;;;;;;5110849;28;20473;-59
2023/10/30 13:51:41;;;;;;;3.10;0.90;;;;;;;;;;5113823;28;20450;-60
2023/10/30 13:54:08;;;;;;;2.93;0.90;;;;;;;;;;5113684;28;20469;-60
2023/10/30 13:56:35;;;;;;;5.33;1.13;;;;;;;;;;5113562;28;20477;-59
2023/10/30 13:59:02;;;;;;;2.43;0.93;;;;;;;;;;5113598;28;20464;-60
2023/10/30 14:01:29;;;;;;;2.87;1.10;;;;;;;;;;5113998;28;20839;-60
2023/10/30 14:03:56;;;;;;;1.20;0.70;;;;;;;;;;5113800;28;20442;-60
2023/10/30 14:06:24;;;;;;;3.03;1.77;;;;;;;;;;5113678;28;20519;-60
2023/10/30 14:08:53;;;;;;;3.40;1.27;;;;;;;;;;5113508;28;20537;-60
2023/10/30 14:11:20;;;;;;;2.70;0.90;;;;;;;;;;5113238;28;20446;-60
2023/10/30 14:13:47;;;;;;;5.60;1.53;;;;;;;;;;5113526;28;20824;-60
2023/10/30 14:16:15;;;;;;;1.47;1.10;;;;;;;;;;5113541;28;20575;-60
2023/10/30 14:18:41;;;;;;;5.00;0.97;;;;;;;;;;5113404;28;20809;-60
2023/10/30 14:21:08;;;;;;;3.60;0.87;;;;;;;;;;5113367;28;20446;-60
2023/10/30 14:23:37;;;;;;;1.20;0.90;;;;;;;;;;5113082;28;20442;-60
2023/10/30 14:26:04;;;;;;;3.83;1.13;;;;;;;;;;5113406;28;20958;-60
2023/10/30 14:28:32;;;;;;;6.50;2.03;;;;;;;;;;5113246;28;20446;-61
2023/10/30 14:30:59;;;;;;;1.90;0.90;;;;;;;;;;5112940;28;20943;-61
2023/10/30 14:33:26;;;;;;;2.97;1.30;;;;;;;;;;5113161;28;20473;-60
2023/10/30 14:35:52;;;;;;;9.30;1.40;;;;;;;;;;5113122;28;20774;-60
2023/10/30 14:38:19;;;;;;;1.97;0.93;;;;;;;;;;5113165;28;20448;-60
2023/10/30 14:40:48;;;;;;;3.10;1.30;;;;;;;;;;5113464;28;20469;-60
2023/10/30 14:43:15;;;;;;;1.30;0.83;;;;;;;;;;5113255;28;20872;-60
2023/10/30 14:45:42;;;;;;;2.20;1.20;;;;;;;;;;5113175;28;20472;-60